Fairweather — WTEB — position and weather

sailwx.info

Track history (hours):
 
Tides and Currents Weather Stations Pressure Air Temp Water Temp Dewpoint Dewpoint Depression Visibility Wind Speed Wind Dir Waves Ship Positions

Oceanographic research ship Fairweather (USA)

Detailed information on ship capabilities available from University of Delaware's Ocean Information Center.

Last reported at 2017-Dec-29 17:54 UTC. Time now 2018-Feb-19 09:59 UTC.
Position N 44°36' W 124°00'.
Warning: this ship's position is 51 days out of date.

Type: Other ship. MMSI: 369960000.

Barometer 1017.9 mb
Water temperature 11.6 ° C

Date/timePositionNaut miles runAvg speedWind from/ knotsBaromVisibWave heightAir tempDewpointWater temp
2017-Dec-29 17:54N 44°36' W 124°00'0 0.0 1017.9 11.6
2017-Dec-29 16:54N 44°36' W 124°00'0 0.0 1018.1 11.5
2017-Dec-29 15:54N 44°36' W 124°00'   1017.8 11.4
2017-Dec-20 16:28N 44°36' W 124°00'0 0.0 1021.3 11.1
2017-Dec-20 15:29N 44°36' W 124°00'0 0.0 1019.9 11.2
2017-Dec-20 14:29N 44°36' W 124°00'0 0.0 1018.7 11.3
2017-Dec-20 13:29N 44°36' W 124°00'0 0.0 1018.1 11.4
2017-Dec-20 12:29N 44°36' W 124°00'0 0.0 1018.0 11.4
2017-Dec-20 11:29N 44°36' W 124°00'0 0.0 1017.4 11.4
2017-Dec-20 10:29N 44°36' W 124°00'0 0.0 1016.6 11.4
2017-Dec-20 09:29N 44°36' W 124°00'0 0.0 1015.6 11.4
2017-Dec-20 08:29N 44°36' W 124°00'0 0.0 1015.3 11.4
2017-Dec-20 07:29N 44°36' W 124°00'0 0.0 1015.3 11.3
2017-Dec-20 06:29N 44°36' W 124°00'0 0.0 1014.8 11.3
2017-Dec-20 05:29N 44°36' W 124°00'0 0.0 1013.9 11.3
2017-Dec-20 04:29N 44°36' W 124°00'0 0.0 1013.4 11.4
2017-Dec-20 03:29N 44°36' W 124°00'0 0.0 1012.7 11.5
2017-Dec-20 02:29N 44°36' W 124°00'0 0.0 1012.0 11.6
2017-Dec-20 01:29N 44°36' W 124°00'0 0.0 1011.3 11.7
2017-Dec-20 00:30N 44°36' W 124°00'0 0.0 1010.9 11.8
2017-Dec-19 23:30N 44°36' W 124°00'0 0.0 1010.2 11.8
2017-Dec-19 22:31N 44°36' W 124°00'0 0.0 1009.4 11.8
2017-Dec-19 21:31N 44°36' W 124°00'0 0.0 1008.8 11.8
2017-Dec-19 20:32N 44°36' W 124°00'0 0.0 1008.8 11.8
2017-Dec-19 19:32N 44°36' W 124°00'0 0.0 1009.1 11.8
2017-Dec-19 18:33N 44°36' W 124°00'   1008.7 11.8
Track history (hours):
 
Tides and Currents Weather Stations Pressure Air Temp Water Temp Dewpoint Dewpoint Depression Visibility Wind Speed Wind Dir Waves Ship Positions

Oceanographic research ship Fairweather (USA)

Detailed information on ship capabilities available from University of Delaware's Ocean Information Center.

Last reported at 2017-Dec-29 17:54 UTC. Time now 2018-Feb-19 09:59 UTC.
Position N 44°36' W 124°00'.
Warning: this ship's position is 51 days out of date.

Type: Other ship. MMSI: 369960000.

Barometer 1017.9 mb
Water temperature 11.6 ° C

Date/timePositionNaut miles runAvg speedWind from/ knotsBaromVisibWave heightAir tempDewpointWater temp
2017-Dec-29 17:54N 44°36' W 124°00'0 0.0 1017.9 11.6
2017-Dec-29 16:54N 44°36' W 124°00'0 0.0 1018.1 11.5
2017-Dec-29 15:54N 44°36' W 124°00'   1017.8 11.4
2017-Dec-20 16:28N 44°36' W 124°00'0 0.0 1021.3 11.1
2017-Dec-20 15:29N 44°36' W 124°00'0 0.0 1019.9 11.2
2017-Dec-20 14:29N 44°36' W 124°00'0 0.0 1018.7 11.3
2017-Dec-20 13:29N 44°36' W 124°00'0 0.0 1018.1 11.4
2017-Dec-20 12:29N 44°36' W 124°00'0 0.0 1018.0 11.4
2017-Dec-20 11:29N 44°36' W 124°00'0 0.0 1017.4 11.4
2017-Dec-20 10:29N 44°36' W 124°00'0 0.0 1016.6 11.4
2017-Dec-20 09:29N 44°36' W 124°00'0 0.0 1015.6 11.4
2017-Dec-20 08:29N 44°36' W 124°00'0 0.0 1015.3 11.4
2017-Dec-20 07:29N 44°36' W 124°00'0 0.0 1015.3 11.3
2017-Dec-20 06:29N 44°36' W 124°00'0 0.0 1014.8 11.3
2017-Dec-20 05:29N 44°36' W 124°00'0 0.0 1013.9 11.3
2017-Dec-20 04:29N 44°36' W 124°00'0 0.0 1013.4 11.4
2017-Dec-20 03:29N 44°36' W 124°00'0 0.0 1012.7 11.5
2017-Dec-20 02:29N 44°36' W 124°00'0 0.0 1012.0 11.6
2017-Dec-20 01:29N 44°36' W 124°00'0 0.0 1011.3 11.7
2017-Dec-20 00:30N 44°36' W 124°00'0 0.0 1010.9 11.8
2017-Dec-19 23:30N 44°36' W 124°00'0 0.0 1010.2 11.8
2017-Dec-19 22:31N 44°36' W 124°00'0 0.0 1009.4 11.8
2017-Dec-19 21:31N 44°36' W 124°00'0 0.0 1008.8 11.8
2017-Dec-19 20:32N 44°36' W 124°00'0 0.0 1008.8 11.8
2017-Dec-19 19:32N 44°36' W 124°00'0 0.0 1009.1 11.8
2017-Dec-19 18:33N 44°36' W 124°00'   1008.7 11.8

Dump ship's entire track history